»·PEaware :: N326AL KAPA-KASE

N326AL :: KAPA-KASE

FLIGHT INFORMATION

Flight Status: Arrived
Operator: Privately registered:
United States
More flights under this callsign
Pilot: Erik S. (3779)
Aircraft: BOEING 737-300
(B733)
More flights by this aircraft type
Origin: KAPA Centennial
United States
Destination: KASE Aspen-Pitkin Co/Sardy
United States
More flights between these airports :: More routes between these airports
Route: CONNR4 DBL
File this flight plan on PilotEdge
Remarks:
Altitude:
(Current/Filed)
20,000ft
Speed:
(Current/Filed)
478kts
Departed: 05-Oct-17 03:58 PM
Arrived: 05-Oct-17 04:25 PM
Distance/Time
Traveled:
96nm/0:27
Distance/Time
To Go:
Arrived

Flight Plot

Page will automatically refresh every two minutes.

Flight plan parsing failed; only flown route is shown


Map Options




Map Legend


Flown Route
Filed Route
Departure Airport
Arrival Airport
Navaid (VOR, NDB)
Fix

Horizontal Profiles

Position Reports

Time Latitude Longitude Heading Altitude Ground
Speed
05-Oct-17 15:41 39.568237 -104.847316 87 5889ft 0kts
05-Oct-17 15:42 39.568236 -104.847371 88 5889ft 0kts
05-Oct-17 15:43 39.578683 -104.848769 89 5889ft 0kts
05-Oct-17 15:44 39.578683 -104.848769 89 5889ft 0kts
05-Oct-17 15:45 39.578683 -104.848769 89 5889ft 0kts
05-Oct-17 15:46 39.578683 -104.848769 89 5889ft 0kts
05-Oct-17 15:47 39.578683 -104.848769 89 5889ft 0kts
05-Oct-17 15:48 39.578683 -104.848769 89 5889ft 0kts
05-Oct-17 15:49 39.578683 -104.848769 89 5889ft 0kts
05-Oct-17 15:50 39.578683 -104.848769 89 5889ft 0kts
05-Oct-17 15:51 39.578683 -104.848769 89 5889ft 0kts
05-Oct-17 15:52 39.578683 -104.848874 90 5889ft 0kts
05-Oct-17 15:53 39.578754 -104.849428 138 5889ft 0kts
05-Oct-17 15:54 39.578796 -104.849475 139 5889ft 0kts
05-Oct-17 15:55 39.577446 -104.849344 252 5889ft 9kts
05-Oct-17 15:56 39.574261 -104.849585 176 5889ft 0kts
05-Oct-17 15:57 39.574261 -104.849585 176 5889ft 0kts
05-Oct-17 15:58 39.573939 -104.849565 179 5889ft 11kts
05-Oct-17 15:59 39.566771 -104.849235 177 5889ft 26kts
05-Oct-17 16:00 39.560413 -104.848927 178 5889ft 19kts
05-Oct-17 16:01 39.556823 -104.850096 306 5889ft 9kts
05-Oct-17 16:02 39.578181 -104.851112 0 6244ft 178kts
05-Oct-17 16:03 39.621053 -104.891136 298 8269ft 256kts
05-Oct-17 16:04 39.657476 -104.972356 297 9915ft 259kts
05-Oct-17 16:05 39.700175 -105.062174 297 12635ft 320kts
05-Oct-17 16:06 39.711934 -105.164142 256 16230ft 306kts
05-Oct-17 16:07 39.705483 -105.275361 263 19690ft 315kts
05-Oct-17 16:08 39.702765 -105.397666 264 20156ft 364kts
05-Oct-17 16:09 39.700332 -105.528232 264 20157ft 362kts
05-Oct-17 16:10 39.697755 -105.658872 264 20150ft 362kts
05-Oct-17 16:11 39.684133 -105.788017 258 20165ft 361kts
05-Oct-17 16:12 39.669674 -105.917288 259 20179ft 362kts
05-Oct-17 16:13 39.655322 -106.045127 259 20185ft 362kts
05-Oct-17 16:14 39.641136 -106.170334 258 20214ft 361kts
05-Oct-17 16:15 39.627342 -106.294393 258 20224ft 334kts
05-Oct-17 16:16 39.593490 -106.412697 245 20224ft 353kts
05-Oct-17 16:17 39.558734 -106.523307 254 20147ft 298kts
05-Oct-17 16:18 39.547206 -106.625143 258 18410ft 285kts
05-Oct-17 16:19 39.535741 -106.725898 258 16350ft 282kts
05-Oct-17 16:20 39.523681 -106.825535 258 14361ft 281kts
05-Oct-17 16:21 39.512984 -106.917230 258 13939ft 227kts
05-Oct-17 16:22 39.475864 -106.953366 190 13925ft 176kts
05-Oct-17 16:23 39.428324 -106.957866 190 12935ft 175kts
05-Oct-17 16:24 39.381960 -106.945455 168 12802ft 158kts
05-Oct-17 16:25 39.343667 -106.926420 169 12125ft 148kts
05-Oct-17 16:26 39.305681 -106.908336 168 11081ft 156kts
05-Oct-17 16:27 39.262983 -106.887384 165 8938ft 159kts
05-Oct-17 16:28 39.225020 -106.869880 168 7826ft 113kts
05-Oct-17 16:29 39.219268 -106.865883 337 7824ft 15kts
05-Oct-17 16:30 39.220938 -106.865601 70 7824ft 0kts
05-Oct-17 16:31 39.220938 -106.865601 70 7824ft 0kts
05-Oct-17 16:32 39.220938 -106.865601 70 7824ft 0kts
05-Oct-17 16:33 39.220938 -106.865601 70 7824ft 0kts
05-Oct-17 16:34 39.220938 -106.865601 70 7824ft 0kts
05-Oct-17 16:35 39.220938 -106.865601 70 7824ft 0kts
05-Oct-17 16:36 39.220938 -106.865601 70 7824ft 0kts
05-Oct-17 16:37 39.220938 -106.865601 70 7824ft 0kts
05-Oct-17 16:38 39.220938 -106.865601 70 7824ft 0kts
05-Oct-17 16:39 39.220938 -106.865601 70 7824ft 0kts
05-Oct-17 16:40 39.220938 -106.865601 70 7824ft 0kts
05-Oct-17 16:41 39.220938 -106.865601 70 7824ft 0kts
05-Oct-17 16:42 39.220938 -106.865601 70 7824ft 0kts
05-Oct-17 16:43 39.220938 -106.865601 70 7824ft 0kts

Navigation Log

Ident Type
Flight plan parsing failed, navigation log unavailable